Time;durP1;ratioP1;P1;durP2;ratioP2;P2;SDS_P1;SDS_P2;PMS_P1;PMS_P2;Temp;Humidity;BMP_temperature;BMP_pressure;BME280_temperature;BME280_humidity;BME280_pressure;Samples;Min_cycle;Max_cycle;Signal;HPM_P1;HPM_P2
2021/05/02 00:00:22;;;;;;;14.80;9.30;;;10.70;99.90;;;;;;5052991;28;20037;-62
2021/05/02 00:02:47;;;;;;;15.68;9.18;;;10.80;99.90;;;;;;5051663;28;20025;-63
2021/05/02 00:05:17;;;;;;;18.27;9.25;;;10.80;99.90;;;;;;5052914;28;20029;-63
2021/05/02 00:07:43;;;;;;;14.13;9.07;;;10.80;99.90;;;;;;5051721;28;20111;-63
2021/05/02 00:10:12;;;;;;;13.48;8.48;;;10.80;99.90;;;;;;5052819;28;20029;-63
2021/05/02 00:12:38;;;;;;;14.98;7.95;;;10.70;99.90;;;;;;5052831;28;20088;-63
2021/05/02 00:15:12;;;;;;;15.27;9.15;;;10.80;99.90;;;;;;5052499;28;20037;-63
2021/05/02 00:17:42;;;;;;;15.65;8.93;;;10.80;98.40;;;;;;5052746;28;20033;-62
2021/05/02 00:20:10;;;;;;;16.95;8.48;;;10.80;98.30;;;;;;5051539;28;20385;-63
2021/05/02 00:22:38;;;;;;;18.45;8.50;;;10.80;98.10;;;;;;5052425;28;20051;-64
2021/05/02 00:25:08;;;;;;;11.57;7.32;;;10.80;97.80;;;;;;5051082;28;20025;-64
2021/05/02 00:27:35;;;;;;;13.48;8.32;;;10.80;98.00;;;;;;5052762;28;20037;-64
2021/05/02 00:30:04;;;;;;;16.70;9.13;;;10.80;97.80;;;;;;5052574;28;20092;-64
2021/05/02 00:32:30;;;;;;;15.10;8.20;;;10.80;98.10;;;;;;5052599;28;20037;-63
2021/05/02 00:34:58;;;;;;;16.88;7.95;;;10.80;97.90;;;;;;5067904;28;20033;-63
2021/05/02 00:37:25;;;;;;;13.88;7.82;;;10.90;97.50;;;;;;5052101;28;20113;-63
2021/05/02 00:39:51;;;;;;;12.82;8.05;;;11.00;97.20;;;;;;5051308;28;20485;-63
2021/05/02 00:42:24;;;;;;;12.35;7.43;;;11.00;97.30;;;;;;5051111;28;20466;-63
2021/05/02 00:45:08;;;;;;;14.63;8.00;;;10.90;97.90;;;;;;5051205;28;20473;-63
2021/05/02 00:47:38;;;;;;;10.98;7.40;;;11.00;97.20;;;;;;5052138;28;20029;-63
2021/05/02 00:50:16;;;;;;;15.25;8.00;;;11.00;97.30;;;;;;5051434;28;20044;-63
2021/05/02 00:52:49;;;;;;;12.48;7.85;;;11.00;97.40;;;;;;5050976;28;20104;-63
2021/05/02 00:55:41;;;;;;;13.57;7.45;;;10.90;97.60;;;;;;5052067;28;20120;-63
2021/05/02 00:58:18;;;;;;;16.17;7.05;;;10.90;97.20;;;;;;5034590;28;20037;-63
2021/05/02 01:00:53;;;;;;;12.32;7.25;;;10.80;96.90;;;;;;5052275;28;20040;-64
2021/05/02 01:03:24;;;;;;;15.10;7.75;;;10.80;96.40;;;;;;5050745;28;20033;-63
2021/05/02 01:05:53;;;;;;;10.60;7.35;;;10.80;96.80;;;;;;5052227;28;20102;-63
2021/05/02 01:08:18;;;;;;;12.93;7.72;;;10.80;96.80;;;;;;5050778;28;20041;-63
2021/05/02 01:10:46;;;;;;;13.07;7.50;;;10.80;96.90;;;;;;5052296;28;20570;-63
2021/05/02 01:13:15;;;;;;;14.13;7.82;;;10.70;96.90;;;;;;5051881;28;20056;-63
2021/05/02 01:15:47;;;;;;;12.48;7.13;;;10.70;97.00;;;;;;5051763;28;20060;-63
2021/05/02 01:18:18;;;;;;;13.73;7.30;;;10.90;96.00;;;;;;5051974;28;20040;-62
2021/05/02 01:20:44;;;;;;;12.13;7.43;;;11.00;95.70;;;;;;5051736;28;20033;-63
2021/05/02 01:23:29;;;;;;;11.98;7.53;;;10.90;95.60;;;;;;5050366;28;20049;-63
2021/05/02 01:26:00;;;;;;;14.88;7.60;;;11.00;95.90;;;;;;5051181;28;20041;-64
2021/05/02 01:28:29;;;;;;;11.90;7.22;;;11.00;95.40;;;;;;5051833;28;20032;-62
2021/05/02 01:30:56;;;;;;;13.45;6.78;;;11.10;95.30;;;;;;5052036;28;20041;-62
2021/05/02 01:33:23;;;;;;;12.40;6.65;;;11.10;95.10;;;;;;5051814;28;20167;-62
2021/05/02 01:35:49;;;;;;;10.52;7.15;;;11.10;95.20;;;;;;5051682;28;20036;-62
2021/05/02 01:38:16;;;;;;;12.30;6.97;;;11.00;95.30;;;;;;5051630;28;20040;-62
2021/05/02 01:40:42;;;;;;;13.52;7.03;;;10.90;95.30;;;;;;5051672;28;20393;-62
2021/05/02 01:43:08;;;;;;;9.82;6.47;;;11.00;95.60;;;;;;5051864;28;20033;-62
2021/05/02 01:45:33;;;;;;;12.27;6.15;;;10.90;95.50;;;;;;5051960;28;20056;-62
2021/05/02 01:48:07;;;;;;;10.05;5.82;;;11.00;94.00;;;;;;5050381;28;20036;-62
2021/05/02 01:50:59;;;;;;;10.70;6.13;;;11.00;93.00;;;;;;5067093;28;20044;-62
2021/05/02 01:53:27;;;;;;;9.65;5.40;;;11.00;92.30;;;;;;5051315;28;20037;-62
2021/05/02 01:55:54;;;;;;;9.70;5.88;;;11.00;92.50;;;;;;5050628;28;20061;-62
2021/05/02 01:58:21;;;;;;;7.78;5.20;;;11.00;92.40;;;;;;5050324;28;20128;-62
2021/05/02 02:01:01;;;;;;;10.45;5.55;;;10.90;92.10;;;;;;5050613;28;20456;-63
2021/05/02 02:03:27;;;;;;;9.73;5.57;;;10.90;92.40;;;;;;5055295;28;20032;-63
2021/05/02 02:05:54;;;;;;;8.15;5.07;;;10.90;92.10;;;;;;5055366;28;20024;-62
2021/05/02 02:08:20;;;;;;;9.02;5.20;;;10.80;92.00;;;;;;5036907;28;20040;-63
2021/05/02 02:10:50;;;;;;;8.00;5.55;;;10.80;92.00;;;;;;5054966;28;20444;-63
2021/05/02 02:13:18;;;;;;;9.52;5.82;;;10.80;92.10;;;;;;5055126;28;20037;-63
2021/05/02 02:15:45;;;;;;;9.75;4.80;;;10.80;91.90;;;;;;5055142;28;20036;-63
2021/05/02 02:18:13;;;;;;;10.23;5.18;;;10.70;92.00;;;;;;5054717;28;20087;-63
2021/05/02 02:21:00;;;;;;;8.60;4.78;;;10.70;92.20;;;;;;5053523;28;20029;-63
2021/05/02 02:23:33;;;;;;;7.03;5.25;;;10.70;92.20;;;;;;5037071;28;20060;-62
2021/05/02 02:26:23;;;;;;;7.97;4.88;;;10.70;92.20;;;;;;5055064;28;20026;-63
2021/05/02 02:28:53;;;;;;;7.68;4.90;;;10.70;92.40;;;;;;5054328;28;20108;-62
2021/05/02 02:31:22;;;;;;;7.50;4.78;;;10.60;92.40;;;;;;5053451;28;20478;-62
2021/05/02 02:33:50;;;;;;;7.97;5.10;;;10.60;92.70;;;;;;5053438;28;20037;-62
2021/05/02 02:36:17;;;;;;;8.18;4.85;;;10.40;93.10;;;;;;5054640;28;20025;-63
2021/05/02 02:38:45;;;;;;;14.63;5.95;;;10.50;93.00;;;;;;5053501;28;20040;-63
2021/05/02 02:41:17;;;;;;;8.15;4.95;;;10.50;93.00;;;;;;5054353;28;20432;-62
2021/05/02 02:44:00;;;;;;;10.95;5.13;;;10.50;93.40;;;;;;5054600;28;20029;-63
2021/05/02 02:46:26;;;;;;;13.15;5.97;;;10.50;93.10;;;;;;5053301;28;20036;-63
2021/05/02 02:48:58;;;;;;;8.50;5.53;;;10.40;93.50;;;;;;5053138;28;20037;-62
2021/05/02 02:51:28;;;;;;;10.05;6.15;;;10.40;93.80;;;;;;5036407;28;20033;-62
2021/05/02 02:54:00;;;;;;;11.57;5.90;;;10.40;93.80;;;;;;5054205;28;20090;-62
2021/05/02 02:56:30;;;;;;;10.02;5.88;;;10.40;93.80;;;;;;5052842;28;20385;-62
2021/05/02 02:58:57;;;;;;;10.85;6.53;;;10.40;93.90;;;;;;5054075;28;20033;-62
2021/05/02 03:01:25;;;;;;;10.88;6.15;;;10.30;93.90;;;;;;5054266;28;20075;-62
2021/05/02 03:03:57;;;;;;;13.02;6.47;;;10.30;94.10;;;;;;5053850;28;20379;-62
2021/05/02 03:06:27;;;;;;;10.77;6.13;;;10.30;94.10;;;;;;5052975;28;20029;-62
2021/05/02 03:08:55;;;;;;;11.70;6.32;;;10.20;94.40;;;;;;5053943;28;20052;-63
2021/05/02 03:11:21;;;;;;;11.93;7.28;;;10.30;94.50;;;;;;5053884;28;20041;-62
2021/05/02 03:13:48;;;;;;;10.20;6.40;;;10.30;94.40;;;;;;5053210;28;20033;-62
2021/05/02 03:16:23;;;;;;;10.45;6.50;;;10.30;94.70;;;;;;5052671;28;20385;-63
2021/05/02 03:19:08;;;;;;;11.63;6.40;;;10.30;94.80;;;;;;5035920;28;20040;-62
2021/05/02 03:22:13;;;;;;;10.27;6.18;;;10.30;94.80;;;;;;5052267;28;20401;-62
2021/05/02 03:24:47;;;;;;;13.90;7.47;;;10.30;94.90;;;;;;5052772;28;20108;-63
2021/05/02 03:27:22;;;;;;;10.45;6.32;;;10.20;95.20;;;;;;5068526;28;20045;-63
2021/05/02 03:29:48;;;;;;;13.20;7.18;;;10.20;95.40;;;;;;5053863;28;20028;-63
2021/05/02 03:32:16;;;;;;;13.48;7.45;;;10.20;95.20;;;;;;5052474;28;20033;-62
2021/05/02 03:34:43;;;;;;;12.60;7.28;;;10.20;95.20;;;;;;5053259;28;20548;-63
2021/05/02 03:37:18;;;;;;;9.70;6.18;;;10.20;95.40;;;;;;5053588;28;20510;-62
2021/05/02 03:39:48;;;;;;;13.52;7.03;;;10.10;95.60;;;;;;5053754;28;20108;-62
2021/05/02 03:42:15;;;;;;;11.65;6.45;;;10.10;95.70;;;;;;5069205;28;20036;-63
2021/05/02 03:44:41;;;;;;;12.63;7.82;;;10.10;95.90;;;;;;5053499;28;20029;-62
2021/05/02 03:47:07;;;;;;;12.63;6.93;;;10.10;96.00;;;;;;5052236;28;20112;-63
2021/05/02 03:49:34;;;;;;;11.07;6.63;;;10.10;96.10;;;;;;5035354;28;20422;-62
2021/05/02 03:52:01;;;;;;;13.15;7.35;;;10.10;96.30;;;;;;5052103;28;20591;-62
2021/05/02 03:54:27;;;;;;;10.77;6.63;;;10.10;96.50;;;;;;5035205;28;20037;-64
2021/05/02 03:56:52;;;;;;;11.95;7.03;;;10.10;96.80;;;;;;5052883;28;20036;-63
2021/05/02 03:59:25;;;;;;;12.70;6.60;;;10.10;96.80;;;;;;5053070;28;20033;-63
2021/05/02 04:01:59;;;;;;;13.05;7.70;;;10.10;97.10;;;;;;5052731;28;20032;-62
2021/05/02 04:04:28;;;;;;;14.38;7.45;;;10.00;97.30;;;;;;5052769;28;20103;-63
2021/05/02 04:07:05;;;;;;;13.93;7.95;;;10.00;97.80;;;;;;5053081;28;20032;-63
2021/05/02 04:09:33;;;;;;;11.48;7.47;;;9.90;97.80;;;;;;5052793;28;20047;-63
2021/05/02 04:11:59;;;;;;;13.52;7.90;;;9.80;98.30;;;;;;5051585;28;20029;-62
2021/05/02 04:14:25;;;;;;;15.10;7.78;;;9.80;98.60;;;;;;5052533;28;20098;-63
2021/05/02 04:17:08;;;;;;;14.63;7.88;;;9.80;99.10;;;;;;5051741;28;20087;-63
2021/05/02 04:19:37;;;;;;;11.70;6.70;;;9.70;99.40;;;;;;5051073;28;20033;-63
2021/05/02 04:22:05;;;;;;;12.10;7.82;;;9.70;99.40;;;;;;5052426;28;20053;-62
2021/05/02 04:24:31;;;;;;;12.70;7.90;;;9.70;99.70;;;;;;5050808;28;20117;-62
2021/05/02 04:26:58;;;;;;;12.52;8.05;;;9.70;99.90;;;;;;5051245;28;20481;-62
2021/05/02 04:29:30;;;;;;;14.15;8.32;;;9.70;99.90;;;;;;5052601;28;20230;-63
2021/05/02 04:31:55;;;;;;;;;;;9.60;99.90;;;;;;5053409;28;20036;-63
2021/05/02 04:34:22;;;;;;;15.07;8.45;;;9.60;99.90;;;;;;5052563;28;19916;-63
2021/05/02 04:36:49;;;;;;;12.25;8.32;;;9.60;99.90;;;;;;5052354;28;20477;-63
2021/05/02 04:39:17;;;;;;;20.00;9.65;;;9.50;99.90;;;;;;5051222;28;20103;-62
2021/05/02 04:41:43;;;;;;;15.35;8.75;;;9.50;99.90;;;;;;5052505;28;20040;-62
2021/05/02 04:44:09;;;;;;;13.35;8.85;;;9.50;99.90;;;;;;5052493;28;20021;-62
2021/05/02 04:46:37;;;;;;;14.00;9.02;;;9.40;99.90;;;;;;5052099;28;20032;-63
2021/05/02 04:49:05;;;;;;;14.15;9.32;;;9.50;99.90;;;;;;5052439;28;20033;-63
2021/05/02 04:51:31;;;;;;;19.45;10.10;;;9.40;99.90;;;;;;5051995;28;20063;-62
2021/05/02 04:53:56;;;;;;;13.30;9.95;;;9.40;99.90;;;;;;5051948;28;20482;-65
2021/05/02 04:56:24;;;;;;;22.38;10.95;;;9.40;99.90;;;;;;5052018;28;20448;-65
2021/05/02 04:58:50;;;;;;;15.82;10.52;;;9.40;99.90;;;;;;5052360;28;20063;-65
2021/05/02 05:01:16;;;;;;;17.60;10.13;;;9.40;99.90;;;;;;5051797;28;20493;-64
2021/05/02 05:03:44;;;;;;;16.65;10.20;;;9.30;99.90;;;;;;5051958;28;20065;-64
2021/05/02 05:06:11;;;;;;;18.30;10.88;;;9.30;99.90;;;;;;5052238;28;20037;-65
2021/05/02 05:08:41;;;;;;;17.90;10.02;;;9.20;99.90;;;;;;5051969;28;20033;-65
2021/05/02 05:11:07;;;;;;;16.40;10.98;;;9.20;99.90;;;;;;5051953;28;20104;-65
2021/05/02 05:13:33;;;;;;;18.20;9.82;;;9.20;99.90;;;;;;5067442;28;20060;-65
2021/05/02 05:16:01;;;;;;;19.17;10.57;;;9.20;99.90;;;;;;5051932;28;20086;-65
2021/05/02 05:18:27;;;;;;;16.60;10.75;;;9.30;99.90;;;;;;5051911;28;20056;-65
2021/05/02 05:20:55;;;;;;;23.23;12.60;;;9.30;99.90;;;;;;5067188;28;20029;-65
2021/05/02 05:23:22;;;;;;;21.30;11.60;;;9.30;99.90;;;;;;5052200;28;20032;-65
2021/05/02 05:25:48;;;;;;;18.65;11.20;;;9.20;99.90;;;;;;5067325;28;20033;-65
2021/05/02 05:28:14;;;;;;;15.70;10.75;;;9.20;99.90;;;;;;5052068;28;20029;-65
2021/05/02 05:30:40;;;;;;;16.15;10.60;;;9.20;99.90;;;;;;5051961;28;20033;-65
2021/05/02 05:33:10;;;;;;;19.23;11.23;;;9.20;99.90;;;;;;5052037;28;20175;-65
2021/05/02 05:35:38;;;;;;;22.13;11.52;;;9.20;99.90;;;;;;5051669;28;20107;-65
2021/05/02 05:38:04;;;;;;;20.08;11.98;;;9.20;99.90;;;;;;5055125;28;20033;-65
2021/05/02 05:40:30;;;;;;;19.13;11.23;;;9.10;99.90;;;;;;5055591;28;20029;-65
2021/05/02 05:42:57;;;;;;;22.55;12.73;;;9.10;99.90;;;;;;5055466;28;20039;-65
2021/05/02 05:45:24;;;;;;;19.23;11.95;;;9.10;99.90;;;;;;5055837;28;20104;-65
2021/05/02 05:47:53;;;;;;;19.20;11.32;;;9.10;99.90;;;;;;5071117;28;20029;-66
2021/05/02 05:50:21;;;;;;;21.85;11.35;;;9.10;99.90;;;;;;5055705;28;20076;-65
2021/05/02 05:52:49;;;;;;;23.70;13.43;;;9.10;99.90;;;;;;5070714;28;20040;-65
2021/05/02 05:55:16;;;;;;;22.85;12.68;;;9.10;99.90;;;;;;5070828;28;20484;-65
2021/05/02 05:57:48;;;;;;;19.35;12.00;;;9.00;99.90;;;;;;5070652;28;20045;-66
2021/05/02 06:00:15;;;;;;;18.88;11.68;;;9.00;99.90;;;;;;5055220;28;20032;-66
2021/05/02 06:02:41;;;;;;;18.60;11.13;;;9.10;99.90;;;;;;5070593;28;20045;-64
2021/05/02 06:05:08;;;;;;;21.15;12.70;;;9.10;99.90;;;;;;5055150;28;20025;-65
2021/05/02 06:07:33;;;;;;;17.80;11.82;;;9.20;99.90;;;;;;5054116;28;20098;-64
2021/05/02 06:09:59;;;;;;;22.58;13.82;;;9.30;99.90;;;;;;5053491;28;20778;-65
2021/05/02 06:12:26;;;;;;;21.98;12.23;;;9.30;99.90;;;;;;5069786;28;20032;-65
2021/05/02 06:14:51;;;;;;;17.75;12.30;;;9.40;99.90;;;;;;5054239;28;20121;-64
2021/05/02 06:17:17;;;;;;;20.23;12.80;;;9.40;99.90;;;;;;5054870;28;20114;-64
2021/05/02 06:19:43;;;;;;;24.60;12.63;;;9.40;99.90;;;;;;5054691;28;20036;-63
2021/05/02 06:22:09;;;;;;;20.13;13.20;;;9.30;99.90;;;;;;5043362;28;20057;-65
2021/05/02 06:24:35;;;;;;;20.55;12.45;;;9.30;99.90;;;;;;5042497;28;20038;-64
2021/05/02 06:27:02;;;;;;;23.27;12.23;;;9.40;99.90;;;;;;5034432;28;20033;-64
2021/05/02 06:29:28;;;;;;;19.88;12.80;;;9.40;99.90;;;;;;5049992;28;20362;-64
2021/05/02 06:31:54;;;;;;;17.70;12.25;;;9.50;99.90;;;;;;5034495;28;20080;-64
2021/05/02 06:34:20;;;;;;;17.55;12.02;;;9.50;99.90;;;;;;5034351;28;20026;-64
2021/05/02 06:36:46;;;;;;;20.88;13.10;;;9.40;99.90;;;;;;5016533;28;20033;-64
2021/05/02 06:39:12;;;;;;;19.88;13.13;;;9.50;99.90;;;;;;5049718;28;20037;-63
2021/05/02 06:41:40;;;;;;;20.92;12.90;;;9.40;99.90;;;;;;5034259;28;20109;-63
2021/05/02 06:44:08;;;;;;;21.42;13.82;;;9.40;99.90;;;;;;5034267;28;20673;-63
2021/05/02 06:46:34;;;;;;;24.58;13.38;;;9.40;99.90;;;;;;5034195;28;20037;-63
2021/05/02 06:49:06;;;;;;;21.08;13.23;;;9.50;99.90;;;;;;5033241;28;20031;-64
2021/05/02 06:51:32;;;;;;;19.50;13.00;;;9.50;99.90;;;;;;5049078;28;20068;-64
2021/05/02 06:53:58;;;;;;;23.00;14.43;;;9.70;99.90;;;;;;5032795;28;20033;-62
2021/05/02 06:56:30;;;;;;;23.80;13.48;;;9.70;99.90;;;;;;5016127;28;20593;-72
2021/05/02 06:58:56;;;;;;;24.35;14.48;;;9.80;99.90;;;;;;5033868;28;20393;-64
2021/05/02 07:01:23;;;;;;;20.40;13.55;;;9.90;99.90;;;;;;5034379;28;20120;-63
2021/05/02 07:03:49;;;;;;;23.73;14.02;;;9.90;99.90;;;;;;5033963;28;20073;-64
2021/05/02 07:06:15;;;;;;;20.30;13.05;;;9.90;99.90;;;;;;5034034;28;20025;-64
2021/05/02 07:08:41;;;;;;;21.52;13.63;;;10.00;99.90;;;;;;5016028;28;20474;-64
2021/05/02 07:11:07;;;;;;;26.88;14.43;;;10.00;99.90;;;;;;5034170;28;20032;-64
2021/05/02 07:13:33;;;;;;;25.13;14.65;;;9.90;99.90;;;;;;5033965;28;20037;-64
2021/05/02 07:15:59;;;;;;;24.45;12.77;;;10.10;99.90;;;;;;5033772;28;20048;-65
2021/05/02 07:18:33;;;;;;;22.08;13.35;;;10.10;99.90;;;;;;5033564;28;20033;-64
2021/05/02 07:20:59;;;;;;;22.95;14.27;;;10.10;99.90;;;;;;5048881;28;20397;-63
2021/05/02 07:23:24;;;;;;;23.00;13.82;;;10.30;99.90;;;;;;5033966;28;20041;-63
2021/05/02 07:25:50;;;;;;;23.45;13.32;;;10.40;99.90;;;;;;5060773;28;20495;-64
2021/05/02 07:28:16;;;;;;;21.00;14.20;;;10.50;99.90;;;;;;5053459;28;20120;-64
2021/05/02 07:30:42;;;;;;;27.90;14.30;;;10.50;99.90;;;;;;5053335;28;20064;-65
2021/05/02 07:33:08;;;;;;;22.90;14.05;;;10.40;99.90;;;;;;5053619;28;20056;-64
2021/05/02 07:35:33;;;;;;;24.60;14.07;;;10.40;99.90;;;;;;5053541;28;20037;-64
2021/05/02 07:38:01;;;;;;;22.35;14.77;;;10.40;99.90;;;;;;5053232;28;20104;-64
2021/05/02 07:40:27;;;;;;;23.42;14.32;;;10.50;99.90;;;;;;5068355;28;20029;-65
2021/05/02 07:42:52;;;;;;;23.48;13.77;;;10.40;99.90;;;;;;5053407;28;20035;-65
2021/05/02 07:45:21;;;;;;;25.02;14.10;;;10.50;99.90;;;;;;5053417;28;20613;-68
2021/05/02 07:47:47;;;;;;;24.08;14.32;;;10.50;99.90;;;;;;5068295;28;20041;-65
2021/05/02 07:50:13;;;;;;;24.85;13.18;;;10.60;99.90;;;;;;5053336;28;20025;-66
2021/05/02 07:52:39;;;;;;;22.80;13.32;;;10.70;99.90;;;;;;5053126;28;20156;-66
2021/05/02 07:55:06;;;;;;;22.25;13.43;;;10.60;99.90;;;;;;5026311;28;20425;-65
2021/05/02 07:57:31;;;;;;;27.45;13.15;;;10.70;99.90;;;;;;5013522;28;20030;-65
2021/05/02 07:59:59;;;;;;;19.65;12.05;;;10.70;99.90;;;;;;5013021;28;20032;-65
2021/05/02 08:02:25;;;;;;;23.45;13.18;;;10.80;99.90;;;;;;5013530;28;20042;-67
2021/05/02 08:04:51;;;;;;;20.90;12.27;;;10.70;99.90;;;;;;5028455;28;20026;-66
2021/05/02 08:07:16;;;;;;;21.63;11.57;;;10.70;99.90;;;;;;5013130;28;20049;-65
2021/05/02 08:09:42;;;;;;;19.20;12.82;;;10.80;99.90;;;;;;5013229;28;20041;-66
2021/05/02 08:12:09;;;;;;;20.80;12.77;;;10.90;99.90;;;;;;5012922;28;20131;-67
2021/05/02 08:14:35;;;;;;;20.52;12.25;;;10.90;99.90;;;;;;5013249;28;20034;-67
2021/05/02 08:17:02;;;;;;;22.23;13.05;;;11.00;99.90;;;;;;5013122;28;20042;-66
2021/05/02 08:19:28;;;;;;;22.67;12.27;;;11.20;99.90;;;;;;5028005;28;20022;-66
2021/05/02 08:21:54;;;;;;;18.15;12.13;;;11.40;99.90;;;;;;5036566;28;20050;-65
2021/05/02 08:24:20;;;;;;;18.52;11.23;;;11.40;99.30;;;;;;5032848;28;20037;-65
2021/05/02 08:26:46;;;;;;;15.15;9.45;;;11.50;98.70;;;;;;5051790;28;20126;-65
2021/05/02 08:29:12;;;;;;;18.52;8.85;;;11.40;97.00;;;;;;5039153;28;20021;-64
2021/05/02 08:31:39;;;;;;;16.67;9.10;;;11.30;96.60;;;;;;5032226;28;20441;-66
2021/05/02 08:34:05;;;;;;;16.73;9.25;;;11.20;96.70;;;;;;5032418;28;20034;-67
2021/05/02 08:36:31;;;;;;;13.70;9.25;;;11.20;96.70;;;;;;5032556;28;20101;-67
2021/05/02 08:38:58;;;;;;;15.57;8.55;;;11.40;96.50;;;;;;5031967;28;20044;-67
2021/05/02 08:41:24;;;;;;;14.25;7.80;;;11.50;95.10;;;;;;5032422;28;20431;-66
2021/05/02 08:43:56;;;;;;;13.68;8.20;;;11.40;94.00;;;;;;5032419;28;20037;-66
2021/05/02 08:46:24;;;;;;;13.65;8.13;;;11.40;93.80;;;;;;5047676;28;20080;-67
2021/05/02 08:48:50;;;;;;;14.57;8.35;;;11.40;94.70;;;;;;5047007;28;20128;-68
2021/05/02 08:51:17;;;;;;;13.10;8.93;;;11.50;95.00;;;;;;5031509;28;20080;-67
2021/05/02 08:53:43;;;;;;;12.85;8.55;;;11.60;94.90;;;;;;5031792;28;20030;-65
2021/05/02 08:56:09;;;;;;;13.73;8.02;;;11.70;95.00;;;;;;5011886;28;20393;-65
2021/05/02 08:58:35;;;;;;;13.57;8.25;;;11.80;95.10;;;;;;5052239;28;20051;-65
2021/05/02 09:01:03;;;;;;;15.55;8.02;;;11.90;93.60;;;;;;5052000;28;20037;-65
2021/05/02 09:03:47;;;;;;;11.80;7.45;;;11.90;93.30;;;;;;5067544;28;20131;-65
2021/05/02 09:06:28;;;;;;;12.02;7.22;;;11.80;92.80;;;;;;5034251;28;20040;-66
2021/05/02 09:09:05;;;;;;;11.98;7.05;;;11.80;93.10;;;;;;5052084;28;20357;-66
2021/05/02 09:11:39;;;;;;;12.85;7.15;;;11.80;92.80;;;;;;5052894;28;20489;-65
2021/05/02 09:14:31;;;;;;;15.88;7.60;;;11.90;93.00;;;;;;5055942;28;20114;-66
2021/05/02 09:17:17;;;;;;;11.18;7.43;;;12.10;92.80;;;;;;5055722;28;20044;-66
2021/05/02 09:20:02;;;;;;;12.50;7.82;;;12.40;92.60;;;;;;5055781;28;20079;-65
2021/05/02 09:22:28;;;;;;;11.38;7.80;;;12.60;91.20;;;;;;5041989;28;20060;-65
2021/05/02 09:25:10;;;;;;;11.18;7.50;;;12.20;91.80;;;;;;5031812;28;20049;-65
2021/05/02 09:27:48;;;;;;;11.10;7.32;;;12.50;92.10;;;;;;5016012;28;20113;-65
2021/05/02 09:30:17;;;;;;;12.10;6.80;;;12.80;91.90;;;;;;5031182;28;20476;-63
2021/05/02 09:32:48;;;;;;;13.23;7.53;;;12.60;90.30;;;;;;5031238;28;20038;-64
2021/05/02 09:35:30;;;;;;;10.43;6.80;;;12.50;90.30;;;;;;5031176;28;20029;-65
2021/05/02 09:38:18;;;;;;;10.25;6.55;;;12.70;90.40;;;;;;5031040;28;20092;-66
2021/05/02 09:40:55;;;;;;;9.15;6.50;;;12.90;90.30;;;;;;5015778;28;20478;-65
2021/05/02 09:43:33;;;;;;;10.07;6.95;;;13.10;89.70;;;;;;5016016;28;20045;-65
2021/05/02 09:46:32;;;;;;;11.10;6.47;;;13.20;89.30;;;;;;5015633;28;20031;-64
2021/05/02 09:49:08;;;;;;;9.48;6.70;;;13.30;89.10;;;;;;5015832;28;20034;-65
2021/05/02 09:51:45;;;;;;;9.93;6.72;;;13.30;87.40;;;;;;5015740;28;20036;-64
2021/05/02 09:54:21;;;;;;;14.90;6.53;;;13.00;87.40;;;;;;5030276;28;20037;-65
2021/05/02 09:56:53;;;;;;;10.05;6.32;;;12.90;88.10;;;;;;5034598;28;20040;-64
2021/05/02 09:59:31;;;;;;;9.07;6.20;;;12.80;88.50;;;;;;5035431;28;20112;-64
2021/05/02 10:02:20;;;;;;;8.48;5.55;;;12.70;89.20;;;;;;5035075;28;20044;-66
2021/05/02 10:04:55;;;;;;;9.85;5.90;;;12.80;89.10;;;;;;5050004;28;20033;-64
2021/05/02 10:07:30;;;;;;;8.80;5.65;;;12.90;87.50;;;;;;5050124;28;20470;-65
2021/05/02 10:09:57;;;;;;;8.82;5.43;;;13.00;88.70;;;;;;5034672;28;20050;-65
2021/05/02 10:12:23;;;;;;;7.18;4.82;;;13.30;86.00;;;;;;5035196;28;20646;-65
2021/05/02 10:14:51;;;;;;;7.05;4.75;;;13.40;84.10;;;;;;5017003;28;20189;-65
2021/05/02 10:17:17;;;;;;;7.40;4.93;;;13.30;81.10;;;;;;5034558;28;20061;-66
2021/05/02 10:19:44;;;;;;;9.15;5.00;;;13.50;79.90;;;;;;5034992;28;20037;-65
2021/05/02 10:22:11;;;;;;;6.13;3.85;;;13.30;80.20;;;;;;5034567;28;20049;-64
2021/05/02 10:24:37;;;;;;;7.70;4.47;;;13.50;78.00;;;;;;5029975;28;20379;-65
2021/05/02 10:27:11;;;;;;;6.38;4.82;;;13.40;76.00;;;;;;5030161;28;20069;-65
2021/05/02 10:29:39;;;;;;;6.70;4.22;;;12.90;76.60;;;;;;5030451;28;20034;-64
2021/05/02 10:32:15;;;;;;;7.50;4.32;;;12.80;77.40;;;;;;4980739;28;20129;-65
2021/05/02 10:34:44;;;;;;;4.93;3.33;;;12.90;77.40;;;;;;5015097;28;20064;-65
2021/05/02 10:37:27;;;;;;;6.57;3.15;;;13.10;76.70;;;;;;5014914;28;20038;-65
2021/05/02 10:40:18;;;;;;;7.00;3.40;;;13.70;72.90;;;;;;5029792;28;20032;-65
2021/05/02 10:42:53;;;;;;;;;;;13.80;70.20;;;;;;5015117;28;20487;-65
2021/05/02 10:45:40;;;;;;;5.80;3.35;;;13.70;68.10;;;;;;5014599;28;19914;-65
2021/05/02 10:48:14;;;;;;;3.45;2.47;;;13.60;67.30;;;;;;5014411;28;20038;-66
2021/05/02 10:50:42;;;;;;;4.93;2.72;;;13.90;65.80;;;;;;5014726;28;20029;-65
2021/05/02 10:53:14;;;;;;;5.88;2.90;;;14.20;63.20;;;;;;5029412;28;20432;-64
2021/05/02 10:55:56;;;;;;;5.10;2.72;;;14.30;63.50;;;;;;5014435;28;20115;-65
2021/05/02 10:58:28;;;;;;;4.22;2.70;;;14.70;62.00;;;;;;5014378;28;20390;-65
2021/05/02 11:01:08;;;;;;;3.75;2.30;;;15.00;59.90;;;;;;5014563;28;20026;-64
2021/05/02 11:03:40;;;;;;;3.23;2.00;;;14.90;59.20;;;;;;5013155;28;20385;-64
2021/05/02 11:06:07;;;;;;;4.18;2.25;;;15.00;59.10;;;;;;5013772;28;20041;-66
2021/05/02 11:08:56;;;;;;;3.17;1.70;;;15.20;57.60;;;;;;5014170;28;20037;-65
2021/05/02 11:11:38;;;;;;;3.10;1.70;;;15.40;52.70;;;;;;5013074;28;20034;-64
2021/05/02 11:14:10;;;;;;;2.80;1.63;;;15.20;53.50;;;;;;5014027;28;20040;-65
2021/05/02 11:16:42;;;;;;;3.75;2.20;;;15.20;54.00;;;;;;5029382;28;20037;-64
2021/05/02 11:19:24;;;;;;;3.67;1.98;;;15.50;56.70;;;;;;5028907;28;20029;-64
2021/05/02 11:21:55;;;;;;;4.20;2.40;;;15.40;57.80;;;;;;5013132;28;20046;-65
2021/05/02 11:24:47;;;;;;;3.55;2.30;;;15.40;57.80;;;;;;5014747;28;20065;-74
2021/05/02 11:27:24;;;;;;;5.47;2.53;;;14.70;59.60;;;;;;5029287;28;20033;-65
2021/05/02 11:30:05;;;;;;;5.65;2.78;;;14.40;61.90;;;;;;4996377;28;20022;-64
2021/05/02 11:32:40;;;;;;;3.97;2.42;;;14.30;63.70;;;;;;5014211;28;20454;-65
2021/05/02 11:35:08;;;;;;;5.07;2.60;;;14.50;63.40;;;;;;4995697;28;20048;-63
2021/05/02 11:37:45;;;;;;;4.75;2.28;;;14.60;60.80;;;;;;5013916;28;20040;-66
2021/05/02 11:40:35;;;;;;;3.70;2.00;;;14.50;60.70;;;;;;5013729;28;20042;-65
2021/05/02 11:43:07;;;;;;;6.28;3.63;;;14.50;59.10;;;;;;5013792;28;20096;-65
2021/05/02 11:45:47;;;;;;;3.50;2.42;;;14.50;59.60;;;;;;5013866;28;20037;-65
2021/05/02 11:48:29;;;;;;;4.37;2.23;;;14.50;60.00;;;;;;5013169;28;20553;-65
2021/05/02 11:51:02;;;;;;;4.10;1.90;;;14.70;60.10;;;;;;4996174;28;20034;-65
2021/05/02 11:53:35;;;;;;;3.35;1.80;;;14.70;58.90;;;;;;5013688;28;20029;-64
2021/05/02 11:56:08;;;;;;;4.22;1.90;;;14.90;56.60;;;;;;5013463;28;20061;-64
2021/05/02 11:58:34;;;;;;;4.43;1.83;;;15.00;56.00;;;;;;5013745;28;20127;-64
2021/05/02 12:01:00;;;;;;;2.67;1.63;;;15.50;54.90;;;;;;5013450;28;20478;-65
2021/05/02 12:03:37;;;;;;;3.38;1.98;;;16.00;54.70;;;;;;5013673;28;20060;-65
2021/05/02 12:06:05;;;;;;;3.08;1.80;;;16.00;52.40;;;;;;5028100;28;20038;-65
2021/05/02 12:08:31;;;;;;;4.75;2.60;;;16.20;53.10;;;;;;5028234;28;20052;-65
2021/05/02 12:11:05;;;;;;;3.88;2.47;;;16.30;57.00;;;;;;4995231;28;20117;-65
2021/05/02 12:13:43;;;;;;;4.97;2.60;;;16.20;58.70;;;;;;5028055;28;20486;-64
2021/05/02 12:16:27;;;;;;;4.18;2.10;;;15.80;59.10;;;;;;5013003;28;20038;-65
2021/05/02 12:18:59;;;;;;;5.60;2.20;;;15.60;60.40;;;;;;5012552;28;20034;-65
2021/05/02 12:21:46;;;;;;;4.85;2.53;;;15.80;59.70;;;;;;5018563;28;20409;-65
2021/05/02 12:24:23;;;;;;;4.70;2.47;;;16.20;59.20;;;;;;5048005;28;20038;-65
2021/05/02 12:26:56;;;;;;;6.97;2.35;;;15.80;58.10;;;;;;5013149;28;20069;-66
2021/05/02 12:29:25;;;;;;;3.13;2.08;;;15.50;58.60;;;;;;4996294;28;20040;-66
2021/05/02 12:32:07;;;;;;;5.25;2.17;;;15.40;59.90;;;;;;5012890;28;20037;-65
2021/05/02 12:34:36;;;;;;;3.65;2.28;;;15.80;57.30;;;;;;4979004;28;20165;-65
2021/05/02 12:37:15;;;;;;;4.82;2.58;;;15.90;56.50;;;;;;5012804;28;20065;-65
2021/05/02 12:39:45;;;;;;;6.75;3.25;;;15.70;56.60;;;;;;4995469;28;20034;-65
2021/05/02 12:42:11;;;;;;;4.55;2.10;;;15.30;59.30;;;;;;5012722;28;20026;-64
2021/05/02 12:44:40;;;;;;;3.50;2.20;;;15.20;59.30;;;;;;5012589;28;20383;-65
2021/05/02 12:47:18;;;;;;;3.70;2.67;;;15.20;58.90;;;;;;5012226;28;20041;-64
2021/05/02 12:50:07;;;;;;;4.60;2.10;;;15.60;56.60;;;;;;5012550;28;20399;-66
2021/05/02 12:52:34;;;;;;;4.10;2.22;;;16.00;57.20;;;;;;4979579;28;20033;-65
2021/05/02 12:55:35;;;;;;;5.18;2.00;;;16.30;56.80;;;;;;5017409;28;20049;-64
2021/05/02 12:58:04;;;;;;;4.15;1.98;;;16.70;56.20;;;;;;4974036;28;20042;-64